BGA127G LFRZ-LFAQ
Flight info
| Callsign | BGA127G |
|---|---|
| Flight time | 1h 15m |
| Altitude | 28000 |
| Route | BALNI DCT PEPAL DCT BANTI |
| Aircraft | A337/H-SDE3GHIJ2J3J5M1RVWXY/LB2D1 |
Departure
| Time | 2026-04-27 06:13 |
|---|---|
| Airport | Saint-Nazaire-Montoir Airport (LFRZ) |
Arrival
| Time | 2026-04-27 07:28 |
|---|---|
| Airport | Albert Bray airport (LFAQ) |
| Time | Latitude | Longitude | Altitude | Speed | Heading |
|---|---|---|---|---|---|
| 2026-04-27 05:59 | 47.31395 | -2.16084 | 28 ft | 0 kts | 344° |
| 2026-04-27 06:05 | 47.31377 | -2.16077 | 29 ft | 4 kts | 351° |
| 2026-04-27 06:05 | 47.31350 | -2.16074 | 29 ft | 4 kts | 5° |
| 2026-04-27 06:06 | 47.31324 | -2.16081 | 29 ft | 4 kts | 22° |
| 2026-04-27 06:06 | 47.31302 | -2.16100 | 28 ft | 4 kts | 41° |
| 2026-04-27 06:06 | 47.31300 | -2.16102 | 28 ft | 0 kts | 42° |
| 2026-04-27 06:09 | 47.31314 | -2.16076 | 29 ft | 9 kts | 56° |
| 2026-04-27 06:09 | 47.31341 | -2.15970 | 27 ft | 0 kts | 73° |
| 2026-04-27 06:10 | 47.31337 | -2.15894 | 27 ft | 16 kts | 120° |
| 2026-04-27 06:10 | 47.31248 | -2.15757 | 28 ft | 15 kts | 169° |
| 2026-04-27 06:10 | 47.31130 | -2.15708 | 25 ft | 23 kts | 162° |
| 2026-04-27 06:10 | 47.31056 | -2.15748 | 26 ft | 10 kts | 239° |
| 2026-04-27 06:11 | 47.31010 | -2.15951 | 24 ft | 28 kts | 253° |
| 2026-04-27 06:11 | 47.30959 | -2.16211 | 26 ft | 23 kts | 254° |
| 2026-04-27 06:11 | 47.30946 | -2.16399 | 24 ft | 9 kts | 269° |
| 2026-04-27 06:11 | 47.30933 | -2.16413 | 30 ft | 2 kts | 181° |
| 2026-04-27 06:12 | 47.30928 | -2.16395 | 30 ft | 2 kts | 102° |
| 2026-04-27 06:12 | 47.30935 | -2.16343 | 24 ft | 0 kts | 73° |
| 2026-04-27 06:12 | 47.30940 | -2.16319 | 24 ft | 13 kts | 73° |
| 2026-04-27 06:12 | 47.31028 | -2.15865 | 26 ft | 81 kts | 74° |
| 2026-04-27 06:13 | 47.31251 | -2.14760 | 31 ft | 142 kts | 73° |
| 2026-04-27 06:13 | 47.31566 | -2.13164 | 399 ft | 167 kts | 73° |
| 2026-04-27 06:13 | 47.31873 | -2.11482 | 1175 ft | 173 kts | 76° |
| 2026-04-27 06:13 | 47.32236 | -2.09722 | 1905 ft | 188 kts | 67° |
| 2026-04-27 06:14 | 47.32788 | -2.07835 | 2345 ft | 215 kts | 68° |
| 2026-04-27 06:14 | 47.33393 | -2.05685 | 2648 ft | 238 kts | 64° |
| 2026-04-27 06:14 | 47.34288 | -2.03536 | 3047 ft | 252 kts | 50° |
| 2026-04-27 06:14 | 47.35514 | -2.01659 | 3690 ft | 257 kts | 42° |
| 2026-04-27 06:15 | 47.36844 | -1.99889 | 4502 ft | 258 kts | 40° |
| 2026-04-27 06:15 | 47.38200 | -1.98133 | 5320 ft | 260 kts | 40° |
| 2026-04-27 06:15 | 47.39547 | -1.96394 | 6155 ft | 261 kts | 40° |
| 2026-04-27 06:15 | 47.40915 | -1.94625 | 6989 ft | 263 kts | 41° |
| 2026-04-27 06:16 | 47.42305 | -1.92820 | 7728 ft | 268 kts | 41° |
| 2026-04-27 06:16 | 47.43727 | -1.90976 | 8445 ft | 274 kts | 41° |
| 2026-04-27 06:16 | 47.45172 | -1.89101 | 9177 ft | 279 kts | 41° |
| 2026-04-27 06:16 | 47.46651 | -1.87179 | 9931 ft | 284 kts | 41° |
| 2026-04-27 06:17 | 47.48149 | -1.85231 | 10499 ft | 294 kts | 41° |
| 2026-04-27 06:17 | 47.49740 | -1.83162 | 10776 ft | 313 kts | 41° |
| 2026-04-27 06:17 | 47.51412 | -1.80984 | 11176 ft | 326 kts | 41° |
| 2026-04-27 06:17 | 47.53133 | -1.78742 | 11697 ft | 333 kts | 41° |
| 2026-04-27 06:18 | 47.54878 | -1.76464 | 12328 ft | 337 kts | 41° |
| 2026-04-27 06:18 | 47.56643 | -1.74159 | 12956 ft | 341 kts | 41° |
| 2026-04-27 06:18 | 47.58432 | -1.71820 | 13558 ft | 345 kts | 41° |
| 2026-04-27 06:18 | 47.60245 | -1.69447 | 14148 ft | 349 kts | 41° |
| 2026-04-27 06:19 | 47.62068 | -1.67022 | 14678 ft | 354 kts | 43° |
| 2026-04-27 06:19 | 47.63848 | -1.64496 | 15225 ft | 357 kts | 44° |
| 2026-04-27 06:19 | 47.65618 | -1.61878 | 15755 ft | 361 kts | 45° |
| 2026-04-27 06:19 | 47.67392 | -1.59206 | 16265 ft | 365 kts | 45° |
| 2026-04-27 06:20 | 47.69181 | -1.56497 | 16798 ft | 369 kts | 45° |
| 2026-04-27 06:20 | 47.70990 | -1.53762 | 17296 ft | 373 kts | 45° |
| 2026-04-27 06:20 | 47.72820 | -1.51004 | 17827 ft | 376 kts | 45° |
| 2026-04-27 06:20 | 47.74668 | -1.48225 | 18337 ft | 380 kts | 45° |
| 2026-04-27 06:21 | 47.76540 | -1.45415 | 18778 ft | 384 kts | 45° |
| 2026-04-27 06:21 | 47.78429 | -1.42583 | 19220 ft | 387 kts | 45° |
| 2026-04-27 06:21 | 47.80330 | -1.39731 | 19653 ft | 390 kts | 45° |
| 2026-04-27 06:21 | 47.82246 | -1.36855 | 20064 ft | 393 kts | 45° |
| 2026-04-27 06:22 | 47.84154 | -1.33987 | 20488 ft | 396 kts | 45° |
| 2026-04-27 06:22 | 47.86102 | -1.31056 | 20931 ft | 398 kts | 45° |
| 2026-04-27 06:22 | 47.88078 | -1.28079 | 21354 ft | 401 kts | 45° |
| 2026-04-27 06:22 | 47.90045 | -1.25111 | 21738 ft | 404 kts | 45° |
| 2026-04-27 06:23 | 47.91998 | -1.22160 | 22108 ft | 407 kts | 45° |
| 2026-04-27 06:23 | 47.93995 | -1.19140 | 22495 ft | 410 kts | 45° |
| 2026-04-27 06:23 | 47.96003 | -1.16098 | 22873 ft | 412 kts | 45° |
| 2026-04-27 06:23 | 47.98020 | -1.13039 | 23252 ft | 415 kts | 45° |
| 2026-04-27 06:24 | 48.00049 | -1.09960 | 23623 ft | 418 kts | 45° |
| 2026-04-27 06:24 | 48.02091 | -1.06856 | 23972 ft | 419 kts | 45° |
| 2026-04-27 06:24 | 48.04136 | -1.03743 | 24288 ft | 422 kts | 45° |
| 2026-04-27 06:24 | 48.06202 | -1.00596 | 24607 ft | 423 kts | 45° |
| 2026-04-27 06:25 | 48.08255 | -0.97464 | 24963 ft | 423 kts | 45° |
| 2026-04-27 06:25 | 48.09598 | -0.95414 | 25203 ft | 423 kts | 45° |
| 2026-04-27 06:25 | 48.10629 | -0.93839 | 25379 ft | 423 kts | 45° |
| 2026-04-27 06:25 | 48.11658 | -0.92265 | 25566 ft | 423 kts | 45° |
| 2026-04-27 06:26 | 48.12684 | -0.90694 | 25729 ft | 423 kts | 45° |
| 2026-04-27 06:26 | 48.13715 | -0.89116 | 25925 ft | 423 kts | 45° |
| 2026-04-27 06:26 | 48.14743 | -0.87541 | 26100 ft | 423 kts | 45° |
| 2026-04-27 06:26 | 48.15770 | -0.85968 | 26269 ft | 423 kts | 45° |
| 2026-04-27 06:27 | 48.16798 | -0.84391 | 26431 ft | 423 kts | 45° |
| 2026-04-27 06:27 | 48.17829 | -0.82809 | 26576 ft | 424 kts | 45° |
| 2026-04-27 06:27 | 48.18858 | -0.81228 | 26734 ft | 425 kts | 45° |
| 2026-04-27 06:27 | 48.19890 | -0.79644 | 26901 ft | 425 kts | 45° |
| 2026-04-27 06:28 | 48.20922 | -0.78057 | 27079 ft | 425 kts | 45° |
| 2026-04-27 06:28 | 48.21953 | -0.76470 | 27255 ft | 425 kts | 45° |
| 2026-04-27 06:28 | 48.22984 | -0.74884 | 27456 ft | 424 kts | 45° |
| 2026-04-27 06:28 | 48.24015 | -0.73296 | 27646 ft | 424 kts | 45° |
| 2026-04-27 06:29 | 48.25041 | -0.71714 | 27835 ft | 423 kts | 45° |
| 2026-04-27 06:29 | 48.26069 | -0.70128 | 28006 ft | 423 kts | 45° |
| 2026-04-27 06:29 | 48.27085 | -0.68561 | 28137 ft | 424 kts | 45° |
| 2026-04-27 06:29 | 48.28112 | -0.66975 | 28201 ft | 424 kts | 45° |
| 2026-04-27 06:30 | 48.30200 | -0.63749 | 28216 ft | 432 kts | 45° |
| 2026-04-27 06:30 | 48.32297 | -0.60504 | 28219 ft | 433 kts | 45° |
| 2026-04-27 06:31 | 48.34398 | -0.57249 | 28218 ft | 434 kts | 45° |
| 2026-04-27 06:31 | 48.36499 | -0.53989 | 28220 ft | 434 kts | 45° |
| 2026-04-27 06:32 | 48.38587 | -0.50747 | 28219 ft | 434 kts | 45° |
| 2026-04-27 06:32 | 48.40686 | -0.47481 | 28227 ft | 434 kts | 45° |
| 2026-04-27 06:33 | 48.42786 | -0.44211 | 28226 ft | 434 kts | 45° |
| 2026-04-27 06:33 | 48.44884 | -0.40939 | 28233 ft | 434 kts | 45° |
| 2026-04-27 06:34 | 48.46979 | -0.37670 | 28226 ft | 434 kts | 45° |
| 2026-04-27 06:34 | 48.49076 | -0.34392 | 28226 ft | 434 kts | 45° |
| 2026-04-27 06:35 | 48.51174 | -0.31108 | 28224 ft | 434 kts | 46° |
| 2026-04-27 06:35 | 48.53268 | -0.27827 | 28224 ft | 434 kts | 46° |
| 2026-04-27 06:36 | 48.55435 | -0.24654 | 28228 ft | 433 kts | 42° |
| 2026-04-27 06:36 | 48.57652 | -0.21611 | 28226 ft | 433 kts | 41° |
| 2026-04-27 06:37 | 48.59920 | -0.18570 | 28227 ft | 433 kts | 40° |
| 2026-04-27 06:37 | 48.61808 | -0.16070 | 28227 ft | 433 kts | 40° |
| 2026-04-27 06:38 | 48.64080 | -0.13080 | 28230 ft | 433 kts | 40° |
| 2026-04-27 06:38 | 48.66355 | -0.10089 | 28242 ft | 433 kts | 40° |
| 2026-04-27 06:39 | 48.68635 | -0.07089 | 28236 ft | 434 kts | 40° |
| 2026-04-27 06:39 | 48.70907 | -0.04090 | 28233 ft | 434 kts | 40° |
| 2026-04-27 06:40 | 48.73167 | -0.01099 | 28228 ft | 434 kts | 40° |
| 2026-04-27 06:40 | 48.75435 | 0.01910 | 28231 ft | 434 kts | 40° |
| 2026-04-27 06:41 | 48.77705 | 0.04927 | 28231 ft | 433 kts | 40° |
| 2026-04-27 06:41 | 48.79970 | 0.07942 | 28230 ft | 433 kts | 40° |
| 2026-04-27 06:42 | 48.82234 | 0.10961 | 28234 ft | 433 kts | 40° |
| 2026-04-27 06:42 | 48.84499 | 0.13984 | 28236 ft | 433 kts | 40° |
| 2026-04-27 06:43 | 48.86767 | 0.17016 | 28235 ft | 433 kts | 40° |
| 2026-04-27 06:43 | 48.89031 | 0.20045 | 28235 ft | 433 kts | 40° |
| 2026-04-27 06:44 | 48.91290 | 0.23072 | 28234 ft | 433 kts | 40° |
| 2026-04-27 06:44 | 48.93552 | 0.26106 | 28237 ft | 433 kts | 40° |
| 2026-04-27 06:45 | 48.95812 | 0.29141 | 28238 ft | 433 kts | 40° |
| 2026-04-27 06:45 | 48.98071 | 0.32178 | 28237 ft | 433 kts | 40° |
| 2026-04-27 06:46 | 49.00327 | 0.35216 | 28234 ft | 433 kts | 40° |
| 2026-04-27 06:46 | 49.02574 | 0.38245 | 28236 ft | 433 kts | 40° |
| 2026-04-27 06:47 | 49.04830 | 0.41291 | 28233 ft | 433 kts | 40° |
| 2026-04-27 06:47 | 49.07084 | 0.44338 | 28223 ft | 433 kts | 40° |
| 2026-04-27 06:48 | 49.09339 | 0.47390 | 28238 ft | 433 kts | 40° |
| 2026-04-27 06:48 | 49.11588 | 0.50436 | 28238 ft | 432 kts | 40° |
| 2026-04-27 06:49 | 49.13836 | 0.53486 | 28237 ft | 432 kts | 40° |
| 2026-04-27 06:49 | 49.16085 | 0.56541 | 28241 ft | 432 kts | 40° |
| 2026-04-27 06:50 | 49.18331 | 0.59596 | 28241 ft | 432 kts | 40° |
| 2026-04-27 06:50 | 49.20578 | 0.62656 | 28240 ft | 432 kts | 40° |
| 2026-04-27 06:51 | 49.22822 | 0.65715 | 28239 ft | 432 kts | 40° |
| 2026-04-27 06:51 | 49.25062 | 0.68775 | 28237 ft | 432 kts | 40° |
| 2026-04-27 06:52 | 49.27294 | 0.71825 | 28243 ft | 432 kts | 40° |
| 2026-04-27 06:52 | 49.29533 | 0.74890 | 28245 ft | 432 kts | 40° |
| 2026-04-27 06:53 | 49.31788 | 0.77981 | 28250 ft | 432 kts | 40° |
| 2026-04-27 06:53 | 49.34019 | 0.81042 | 28246 ft | 433 kts | 40° |
| 2026-04-27 06:54 | 49.36261 | 0.84122 | 28244 ft | 433 kts | 40° |
| 2026-04-27 06:54 | 49.38495 | 0.87195 | 28170 ft | 428 kts | 40° |
| 2026-04-27 06:55 | 49.39599 | 0.88718 | 27984 ft | 425 kts | 40° |
| 2026-04-27 06:55 | 49.40697 | 0.90231 | 27716 ft | 423 kts | 40° |
| 2026-04-27 06:55 | 49.41789 | 0.91738 | 27382 ft | 423 kts | 40° |
| 2026-04-27 06:55 | 49.42884 | 0.93248 | 27074 ft | 422 kts | 40° |
| 2026-04-27 06:56 | 49.43973 | 0.94752 | 26749 ft | 421 kts | 40° |
| 2026-04-27 06:56 | 49.45059 | 0.96253 | 26445 ft | 421 kts | 40° |
| 2026-04-27 06:56 | 49.46149 | 0.97758 | 26125 ft | 420 kts | 40° |
| 2026-04-27 06:56 | 49.47238 | 0.99265 | 25821 ft | 420 kts | 40° |
| 2026-04-27 06:57 | 49.48322 | 1.00765 | 25509 ft | 420 kts | 40° |
| 2026-04-27 06:57 | 49.49409 | 1.02269 | 25212 ft | 420 kts | 40° |
| 2026-04-27 06:57 | 49.50493 | 1.03772 | 24911 ft | 419 kts | 40° |
| 2026-04-27 06:57 | 49.51577 | 1.05276 | 24618 ft | 419 kts | 40° |
| 2026-04-27 06:58 | 49.52655 | 1.06771 | 24351 ft | 419 kts | 40° |
| 2026-04-27 06:58 | 49.54821 | 1.09779 | 23752 ft | 418 kts | 40° |
| 2026-04-27 06:58 | 49.55899 | 1.11277 | 23399 ft | 416 kts | 40° |
| 2026-04-27 06:59 | 49.56969 | 1.12766 | 23060 ft | 414 kts | 40° |
| 2026-04-27 06:59 | 49.58035 | 1.14249 | 22725 ft | 412 kts | 40° |
| 2026-04-27 06:59 | 49.59087 | 1.15714 | 22380 ft | 410 kts | 40° |
| 2026-04-27 06:59 | 49.60155 | 1.17203 | 22065 ft | 408 kts | 40° |
| 2026-04-27 07:00 | 49.61193 | 1.18650 | 21742 ft | 406 kts | 40° |
| 2026-04-27 07:00 | 49.62239 | 1.20110 | 21423 ft | 404 kts | 40° |
| 2026-04-27 07:00 | 49.63279 | 1.21563 | 21104 ft | 402 kts | 40° |
| 2026-04-27 07:00 | 49.64312 | 1.23006 | 20782 ft | 401 kts | 41° |
| 2026-04-27 07:01 | 49.65346 | 1.24451 | 20480 ft | 399 kts | 41° |
| 2026-04-27 07:01 | 49.66384 | 1.25904 | 20158 ft | 397 kts | 41° |
| 2026-04-27 07:01 | 49.67395 | 1.27317 | 19862 ft | 395 kts | 41° |
| 2026-04-27 07:01 | 49.68409 | 1.28737 | 19559 ft | 394 kts | 41° |
| 2026-04-27 07:02 | 49.69419 | 1.30152 | 19260 ft | 392 kts | 41° |
| 2026-04-27 07:02 | 49.70427 | 1.31565 | 18973 ft | 390 kts | 41° |
| 2026-04-27 07:02 | 49.71435 | 1.32978 | 18690 ft | 389 kts | 41° |
| 2026-04-27 07:02 | 49.72435 | 1.34381 | 18365 ft | 387 kts | 41° |
| 2026-04-27 07:03 | 49.73429 | 1.35776 | 18012 ft | 385 kts | 41° |
| 2026-04-27 07:03 | 49.74420 | 1.37169 | 17693 ft | 384 kts | 41° |
| 2026-04-27 07:03 | 49.75407 | 1.38556 | 17354 ft | 381 kts | 41° |
| 2026-04-27 07:03 | 49.76385 | 1.39931 | 17039 ft | 379 kts | 41° |
| 2026-04-27 07:04 | 49.77355 | 1.41296 | 16711 ft | 377 kts | 41° |
| 2026-04-27 07:04 | 49.78311 | 1.42643 | 16402 ft | 374 kts | 41° |
| 2026-04-27 07:04 | 49.79270 | 1.43996 | 16087 ft | 372 kts | 41° |
| 2026-04-27 07:04 | 49.80222 | 1.45338 | 15768 ft | 370 kts | 41° |
| 2026-04-27 07:05 | 49.81169 | 1.46675 | 15465 ft | 367 kts | 41° |
| 2026-04-27 07:05 | 49.82111 | 1.48005 | 15152 ft | 365 kts | 41° |
| 2026-04-27 07:05 | 49.83046 | 1.49327 | 14854 ft | 363 kts | 41° |
| 2026-04-27 07:05 | 49.83975 | 1.50641 | 14548 ft | 360 kts | 41° |
| 2026-04-27 07:06 | 49.84902 | 1.51950 | 14241 ft | 358 kts | 41° |
| 2026-04-27 07:06 | 49.85821 | 1.53250 | 13941 ft | 356 kts | 41° |
| 2026-04-27 07:06 | 49.86730 | 1.54536 | 13598 ft | 354 kts | 41° |
| 2026-04-27 07:06 | 49.87638 | 1.55822 | 13302 ft | 351 kts | 41° |
| 2026-04-27 07:07 | 49.88536 | 1.57095 | 12962 ft | 349 kts | 41° |
| 2026-04-27 07:07 | 49.89430 | 1.58362 | 12646 ft | 347 kts | 41° |
| 2026-04-27 07:07 | 49.90309 | 1.59632 | 12316 ft | 345 kts | 45° |
| 2026-04-27 07:07 | 49.91093 | 1.61034 | 12012 ft | 343 kts | 53° |
| 2026-04-27 07:08 | 49.91729 | 1.62589 | 11692 ft | 341 kts | 63° |
| 2026-04-27 07:08 | 49.92172 | 1.64289 | 11376 ft | 339 kts | 73° |
| 2026-04-27 07:08 | 49.92443 | 1.66064 | 11070 ft | 337 kts | 79° |
| 2026-04-27 07:08 | 49.92621 | 1.67859 | 10764 ft | 335 kts | 83° |
| 2026-04-27 07:09 | 49.92750 | 1.69625 | 10464 ft | 333 kts | 84° |
| 2026-04-27 07:09 | 49.92856 | 1.71407 | 10172 ft | 331 kts | 85° |
| 2026-04-27 07:09 | 49.92949 | 1.73171 | 9834 ft | 326 kts | 85° |
| 2026-04-27 07:09 | 49.93034 | 1.74903 | 9509 ft | 318 kts | 85° |
| 2026-04-27 07:10 | 49.93115 | 1.76592 | 9175 ft | 310 kts | 85° |
| 2026-04-27 07:10 | 49.93193 | 1.78247 | 8860 ft | 304 kts | 85° |
| 2026-04-27 07:10 | 49.93268 | 1.79864 | 8537 ft | 298 kts | 85° |
| 2026-04-27 07:10 | 49.93342 | 1.81451 | 8219 ft | 293 kts | 85° |
| 2026-04-27 07:11 | 49.93415 | 1.83011 | 7904 ft | 288 kts | 85° |
| 2026-04-27 07:11 | 49.93487 | 1.84553 | 7588 ft | 284 kts | 85° |
| 2026-04-27 07:11 | 49.93557 | 1.86072 | 7295 ft | 281 kts | 85° |
| 2026-04-27 07:11 | 49.93628 | 1.87581 | 7002 ft | 281 kts | 85° |
| 2026-04-27 07:12 | 49.93699 | 1.89102 | 6696 ft | 283 kts | 85° |
| 2026-04-27 07:12 | 49.93771 | 1.90630 | 6376 ft | 284 kts | 85° |
| 2026-04-27 07:12 | 49.93844 | 1.92162 | 6049 ft | 285 kts | 85° |
| 2026-04-27 07:12 | 49.93916 | 1.93700 | 5738 ft | 286 kts | 85° |
| 2026-04-27 07:13 | 49.93987 | 1.95236 | 5430 ft | 286 kts | 85° |
| 2026-04-27 07:13 | 49.94059 | 1.96783 | 5117 ft | 287 kts | 85° |
| 2026-04-27 07:13 | 49.94130 | 1.98323 | 4796 ft | 287 kts | 85° |
| 2026-04-27 07:13 | 49.94201 | 1.99862 | 4479 ft | 286 kts | 85° |
| 2026-04-27 07:14 | 49.94272 | 2.01401 | 4152 ft | 284 kts | 85° |
| 2026-04-27 07:14 | 49.94341 | 2.02895 | 3881 ft | 277 kts | 85° |
| 2026-04-27 07:14 | 49.94409 | 2.04380 | 3694 ft | 268 kts | 84° |
| 2026-04-27 07:14 | 49.94475 | 2.05806 | 3589 ft | 262 kts | 85° |
| 2026-04-27 07:15 | 49.94537 | 2.07185 | 3576 ft | 259 kts | 85° |
| 2026-04-27 07:15 | 49.94600 | 2.08581 | 3648 ft | 258 kts | 85° |
| 2026-04-27 07:15 | 49.94662 | 2.09966 | 3775 ft | 258 kts | 85° |
| 2026-04-27 07:15 | 49.94724 | 2.11356 | 3901 ft | 258 kts | 85° |
| 2026-04-27 07:16 | 49.94785 | 2.12741 | 3998 ft | 257 kts | 85° |
| 2026-04-27 07:16 | 49.94847 | 2.14129 | 4004 ft | 258 kts | 85° |
| 2026-04-27 07:16 | 49.94910 | 2.15522 | 4011 ft | 259 kts | 85° |
| 2026-04-27 07:16 | 49.94974 | 2.16916 | 4015 ft | 259 kts | 85° |
| 2026-04-27 07:17 | 49.95038 | 2.18311 | 4020 ft | 259 kts | 85° |
| 2026-04-27 07:17 | 49.95100 | 2.19709 | 4017 ft | 259 kts | 85° |
| 2026-04-27 07:17 | 49.95163 | 2.21105 | 4007 ft | 259 kts | 85° |
| 2026-04-27 07:17 | 49.95226 | 2.22499 | 4009 ft | 259 kts | 85° |
| 2026-04-27 07:18 | 49.95287 | 2.23896 | 4016 ft | 259 kts | 85° |
| 2026-04-27 07:18 | 49.95349 | 2.25292 | 4011 ft | 259 kts | 85° |
| 2026-04-27 07:18 | 49.95410 | 2.26689 | 4013 ft | 259 kts | 85° |
| 2026-04-27 07:18 | 49.95632 | 2.31709 | 4016 ft | 259 kts | 85° |
| 2026-04-27 07:19 | 49.95938 | 2.37276 | 4018 ft | 257 kts | 77° |
| 2026-04-27 07:19 | 49.96745 | 2.40103 | 4021 ft | 256 kts | 57° |
| 2026-04-27 07:19 | 49.97705 | 2.42438 | 4023 ft | 256 kts | 57° |
| 2026-04-27 07:19 | 49.98664 | 2.44755 | 4014 ft | 256 kts | 57° |
| 2026-04-27 07:20 | 49.99632 | 2.47082 | 4019 ft | 257 kts | 57° |
| 2026-04-27 07:20 | 50.00601 | 2.49411 | 4019 ft | 256 kts | 57° |
| 2026-04-27 07:20 | 50.01432 | 2.51856 | 4020 ft | 257 kts | 71° |
| 2026-04-27 07:20 | 50.02021 | 2.57129 | 4017 ft | 259 kts | 81° |
| 2026-04-27 07:21 | 50.02320 | 2.60881 | 4016 ft | 257 kts | 81° |
| 2026-04-27 07:21 | 50.02756 | 2.66318 | 4023 ft | 258 kts | 82° |
| 2026-04-27 07:21 | 50.03187 | 2.71859 | 4021 ft | 257 kts | 82° |
| 2026-04-27 07:21 | 50.03640 | 2.77384 | 4015 ft | 258 kts | 82° |
| 2026-04-27 07:22 | 50.04094 | 2.82914 | 4017 ft | 259 kts | 82° |
| 2026-04-27 07:22 | 50.04546 | 2.88460 | 4012 ft | 257 kts | 82° |
| 2026-04-27 07:22 | 50.04823 | 2.91809 | 4010 ft | 258 kts | 82° |
| 2026-04-27 07:22 | 50.05049 | 2.94561 | 3799 ft | 258 kts | 82° |
| 2026-04-27 07:23 | 50.05186 | 2.97348 | 3377 ft | 256 kts | 94° |
| 2026-04-27 07:23 | 50.04648 | 2.99933 | 2939 ft | 249 kts | 114° |
| 2026-04-27 07:23 | 50.03627 | 3.02034 | 2478 ft | 242 kts | 139° |
| 2026-04-27 07:23 | 50.02107 | 3.03039 | 2113 ft | 239 kts | 171° |
| 2026-04-27 07:24 | 50.00526 | 3.02658 | 1934 ft | 225 kts | 206° |
| 2026-04-27 07:24 | 49.99399 | 3.01054 | 2001 ft | 219 kts | 241° |
| 2026-04-27 07:24 | 49.98903 | 2.98973 | 2004 ft | 194 kts | 259° |
| 2026-04-27 07:24 | 49.98630 | 2.96927 | 2026 ft | 196 kts | 261° |
| 2026-04-27 07:25 | 49.98378 | 2.94821 | 2020 ft | 197 kts | 262° |
| 2026-04-27 07:25 | 49.98193 | 2.92712 | 2011 ft | 197 kts | 266° |
| 2026-04-27 07:25 | 49.98057 | 2.90592 | 2016 ft | 197 kts | 266° |
| 2026-04-27 07:25 | 49.97926 | 2.88501 | 2021 ft | 197 kts | 266° |
| 2026-04-27 07:26 | 49.97791 | 2.86355 | 2001 ft | 197 kts | 267° |
| 2026-04-27 07:26 | 49.97655 | 2.84246 | 2011 ft | 196 kts | 267° |
| 2026-04-27 07:26 | 49.97512 | 2.82219 | 2007 ft | 181 kts | 266° |
| 2026-04-27 07:26 | 49.97379 | 2.80379 | 1890 ft | 165 kts | 267° |
| 2026-04-27 07:27 | 49.97308 | 2.78649 | 1656 ft | 155 kts | 271° |
| 2026-04-27 07:27 | 49.97293 | 2.77022 | 1397 ft | 147 kts | 275° |
| 2026-04-27 07:27 | 49.97273 | 2.75460 | 1075 ft | 142 kts | 271° |
| 2026-04-27 07:27 | 49.97225 | 2.73953 | 830 ft | 138 kts | 271° |
| 2026-04-27 07:28 | 49.97159 | 2.72494 | 569 ft | 132 kts | 269° |
| 2026-04-27 07:28 | 49.97094 | 2.71060 | 388 ft | 134 kts | 268° |
| 2026-04-27 07:28 | 49.97030 | 2.69730 | 363 ft | 104 kts | 266° |
| 2026-04-27 07:28 | 49.96994 | 2.69015 | 366 ft | 47 kts | 266° |
| 2026-04-27 07:29 | 49.96971 | 2.68550 | 362 ft | 41 kts | 265° |
| 2026-04-27 07:29 | 49.96948 | 2.68126 | 359 ft | 36 kts | 264° |
| 2026-04-27 07:29 | 49.96947 | 2.67929 | 358 ft | 1 kts | 238° |
| 2026-04-27 07:29 | 49.96943 | 2.67928 | 358 ft | 0 kts | 211° |
| 2026-04-27 07:30 | 49.96935 | 2.67948 | 363 ft | 6 kts | 99° |
| 2026-04-27 07:30 | 49.96946 | 2.68107 | 359 ft | 23 kts | 85° |
| 2026-04-27 07:30 | 49.96963 | 2.68444 | 356 ft | 39 kts | 85° |
| 2026-04-27 07:30 | 49.96986 | 2.68843 | 365 ft | 36 kts | 88° |
| 2026-04-27 07:31 | 49.97006 | 2.69211 | 364 ft | 32 kts | 84° |
| 2026-04-27 07:31 | 49.97021 | 2.69563 | 359 ft | 33 kts | 85° |
| 2026-04-27 07:31 | 49.97080 | 2.69818 | 364 ft | 16 kts | 19° |
| 2026-04-27 07:31 | 49.97134 | 2.69830 | 364 ft | 6 kts | 354° |
| 2026-04-27 07:32 | 49.97194 | 2.69821 | 365 ft | 10 kts | 355° |
| 2026-04-27 07:32 | 49.97267 | 2.69811 | 367 ft | 9 kts | 355° |
| 2026-04-27 07:32 | 49.97319 | 2.69805 | 358 ft | 0 kts | 355° |
| 2026-04-27 07:32 | 49.97322 | 2.69805 | 358 ft | 0 kts | 355° |